Coronel E Carvajal Airport


Codes: SEMC/XMS
Name: Coronel E Carvajal Airport
City: Macas
Country: Ecuador
Elevation: 3452 ft.
Wikipedia:

Photos at Coronel E Carvajal Airport


   Photos courtesy of SpottingLog. You can add your own sightings and photos by signing up for a free trial today.



No photos found.

Weather at Coronel E Carvajal Airport


Time (UTC)DescriptionTempratureWindCloud coverageVisibilityPressureHumidity
25-Jun-2024 12:00Overcast Clouds18°C2 mph, W100%10000m1018hPa88%
25-Jun-2024 15:00Overcast Clouds19°C0 mph, SE100%10000m1018hPa85%
25-Jun-2024 18:00Light Rain23°C2 mph, E99%10000m1017hPa74%
25-Jun-2024 21:00Light Rain24°C2 mph, SE82%10000m1014hPa82%
26-Jun-2024 00:00Light Rain19°C2 mph, W89%10000m1017hPa97%
26-Jun-2024 03:00Overcast Clouds19°C2 mph, W94%10000m1019hPa96%
26-Jun-2024 06:00Light Rain18°C2 mph, W87%10000m1018hPa96%
26-Jun-2024 09:00Overcast Clouds18°C2 mph, W91%10000m1017hPa95%
26-Jun-2024 12:00Overcast Clouds18°C2 mph, W92%10000m1018hPa90%
26-Jun-2024 15:00Light Rain23°C2 mph, E81%10000m1019hPa82%
26-Jun-2024 18:00Moderate Rain23°C2 mph, E81%5509m1016hPa86%
26-Jun-2024 21:00Moderate Rain21°C0 mph, E92%9257m1015hPa96%
27-Jun-2024 00:00Light Rain19°C2 mph, W95%10000m1016hPa97%
27-Jun-2024 03:00Light Rain18°C2 mph, W97%10000m1018hPa97%
27-Jun-2024 06:00Light Rain18°C2 mph, W98%10000m1017hPa97%
27-Jun-2024 09:00Light Rain18°C2 mph, W100%10000m1017hPa98%
27-Jun-2024 12:00Light Rain18°C2 mph, W99%10000m1018hPa98%
27-Jun-2024 15:00Light Rain20°C0 mph, N99%10000m1019hPa95%
27-Jun-2024 18:00Light Rain22°C0 mph, E94%10000m1016hPa85%
27-Jun-2024 21:00Light Rain21°C0 mph, SE90%10000m1014hPa93%
28-Jun-2024 00:00Light Rain19°C2 mph, W94%10000m1016hPa97%
28-Jun-2024 03:00Overcast Clouds18°C2 mph, W85%10000m1017hPa97%
28-Jun-2024 06:00Overcast Clouds17°C2 mph, W87%10000m1017hPa95%
28-Jun-2024 09:00Overcast Clouds17°C4 mph, W86%10000m1015hPa92%
28-Jun-2024 12:00Overcast Clouds18°C2 mph, W89%10000m1016hPa86%
28-Jun-2024 15:00Broken Clouds26°C2 mph, SE72%10000m1016hPa56%
28-Jun-2024 18:00Light Rain27°C4 mph, E65%10000m1013hPa57%
28-Jun-2024 21:00Light Rain23°C2 mph, E87%7476m1012hPa91%
29-Jun-2024 00:00Light Rain19°C2 mph, W67%10000m1015hPa97%
29-Jun-2024 03:00Scattered Clouds18°C2 mph, W40%10000m1017hPa97%
29-Jun-2024 06:00Scattered Clouds17°C2 mph, W41%10000m1017hPa96%
29-Jun-2024 09:00Scattered Clouds17°C4 mph, W47%10000m1016hPa93%
29-Jun-2024 12:00Broken Clouds18°C2 mph, W53%10000m1017hPa87%
29-Jun-2024 15:00Light Rain23°C2 mph, E69%10000m1018hPa72%
29-Jun-2024 18:00Light Rain25°C4 mph, E73%10000m1016hPa74%
29-Jun-2024 21:00Light Rain23°C2 mph, E35%7445m1014hPa88%
30-Jun-2024 00:00Light Rain19°C2 mph, NW43%10000m1016hPa97%
30-Jun-2024 03:00Scattered Clouds18°C2 mph, W34%10000m1019hPa97%
30-Jun-2024 06:00Scattered Clouds17°C2 mph, W30%10000m1018hPa97%
30-Jun-2024 09:00Light Rain17°C2 mph, W58%10000m1017hPa96%